Time;durP1;ratioP1;P1;durP2;ratioP2;P2;SDS_P1;SDS_P2;PMS_P1;PMS_P2;Temp;Humidity;BMP_temperature;BMP_pressure;BME280_temperature;BME280_humidity;BME280_pressure;Samples;Min_cycle;Max_cycle;Signal;HPM_P1;HPM_P2
2021/10/10 00:00:51;;;;;;;61.97;38.33;;;11.30;99.90;;;;;;5086777;28;20164;-65
2021/10/10 00:03:17;;;;;;;57.77;39.20;;;11.10;99.90;;;;;;5086754;28;20164;-65
2021/10/10 00:05:43;;;;;;;57.77;39.40;;;11.20;99.90;;;;;;5086348;28;20179;-65
2021/10/10 00:08:08;;;;;;;54.97;39.83;;;11.10;99.90;;;;;;5086757;28;20168;-64
2021/10/10 00:10:34;;;;;;;55.60;40.03;;;11.00;99.90;;;;;;5085128;28;20171;-65
2021/10/10 00:13:00;;;;;;;58.00;40.70;;;10.80;99.90;;;;;;5086333;28;20191;-65
2021/10/10 00:15:26;;;;;;;60.43;41.53;;;10.80;99.90;;;;;;5085094;28;20178;-65
2021/10/10 00:17:52;;;;;;;62.70;43.40;;;10.80;99.90;;;;;;5086745;28;20164;-65
2021/10/10 00:20:18;;;;;;;66.07;45.13;;;11.00;99.90;;;;;;5086082;28;20172;-65
2021/10/10 00:22:44;;;;;;;62.23;42.77;;;11.20;99.90;;;;;;5086811;28;20175;-65
2021/10/10 00:25:10;;;;;;;57.40;39.33;;;11.20;99.90;;;;;;5086535;28;20191;-65
2021/10/10 00:27:37;;;;;;;54.10;39.07;;;10.90;99.90;;;;;;5086626;28;20222;-65
2021/10/10 00:30:06;;;;;;;55.00;39.90;;;10.80;99.90;;;;;;5086245;28;20198;-65
2021/10/10 00:32:32;;;;;;;59.50;41.57;;;10.70;99.90;;;;;;5085109;28;20192;-65
2021/10/10 00:34:57;;;;;;;53.17;38.83;;;10.60;99.90;;;;;;5085854;28;20182;-65
2021/10/10 00:37:24;;;;;;;51.53;37.60;;;10.60;99.90;;;;;;5086486;28;20191;-65
2021/10/10 00:39:49;;;;;;;54.37;38.30;;;10.60;99.90;;;;;;5086191;28;20190;-65
2021/10/10 00:42:15;;;;;;;52.63;37.87;;;10.60;99.90;;;;;;5086398;28;20172;-65
2021/10/10 00:44:46;;;;;;;50.53;37.30;;;10.50;99.90;;;;;;5086149;28;20168;-65
2021/10/10 00:47:12;;;;;;;54.00;38.57;;;10.50;99.90;;;;;;5086420;28;20601;-65
2021/10/10 00:49:39;;;;;;;58.53;38.63;;;10.50;99.90;;;;;;5085793;28;20191;-65
2021/10/10 00:52:06;;;;;;;55.30;38.17;;;10.50;99.90;;;;;;5084837;28;20180;-65
2021/10/10 00:54:32;;;;;;;52.00;37.73;;;10.60;99.90;;;;;;5086112;28;20164;-66
2021/10/10 00:57:00;;;;;;;45.37;33.97;;;10.50;99.90;;;;;;5086098;28;20164;-65
2021/10/10 00:59:27;;;;;;;47.53;33.40;;;10.40;99.90;;;;;;5085663;28;20168;-65
2021/10/10 01:01:53;;;;;;;45.97;32.93;;;10.30;99.90;;;;;;5085733;28;20186;-65
2021/10/10 01:04:19;;;;;;;52.70;33.10;;;10.20;99.90;;;;;;5085846;28;20160;-65
2021/10/10 01:06:46;;;;;;;50.80;37.17;;;10.20;99.90;;;;;;5086097;28;20613;-65
2021/10/10 01:09:12;;;;;;;49.63;34.37;;;10.20;99.90;;;;;;5085563;28;20215;-65
2021/10/10 01:11:39;;;;;;;44.80;33.60;;;10.20;99.90;;;;;;5086070;28;20156;-65
2021/10/10 01:14:05;;;;;;;50.60;34.37;;;10.30;99.90;;;;;;5085858;28;20191;-65
2021/10/10 01:16:30;;;;;;;54.23;36.30;;;10.40;99.90;;;;;;5084842;28;20183;-65
2021/10/10 01:18:57;;;;;;;51.87;35.00;;;10.50;99.90;;;;;;5085914;28;20164;-66
2021/10/10 01:21:23;;;;;;;56.40;37.03;;;10.60;99.90;;;;;;5085636;28;20172;-65
2021/10/10 01:23:49;;;;;;;68.77;41.70;;;10.60;99.90;;;;;;5085923;28;20168;-65
2021/10/10 01:26:15;;;;;;;107.67;44.70;;;10.40;99.90;;;;;;5088476;28;20186;-65
2021/10/10 01:28:41;;;;;;;100.83;45.93;;;10.30;99.90;;;;;;5088558;28;20172;-65
2021/10/10 01:31:07;;;;;;;105.50;50.10;;;10.10;99.90;;;;;;5088392;28;20211;-65
2021/10/10 01:33:33;;;;;;;83.67;45.87;;;10.10;99.90;;;;;;5089857;28;20191;-65
2021/10/10 01:35:59;;;;;;;91.30;47.87;;;10.20;99.90;;;;;;5089490;28;20175;-65
2021/10/10 01:38:25;;;;;;;106.30;46.07;;;10.10;99.90;;;;;;5089864;28;20186;-65
2021/10/10 01:40:51;;;;;;;125.80;46.13;;;9.90;99.90;;;;;;5089541;28;20172;-65
2021/10/10 01:43:17;;;;;;;157.27;49.63;;;9.80;99.90;;;;;;5089859;28;20175;-65
2021/10/10 01:45:43;;;;;;;136.07;45.27;;;9.70;99.90;;;;;;5089590;28;20219;-65
2021/10/10 01:48:10;;;;;;;166.10;48.53;;;9.70;99.90;;;;;;5089646;28;20179;-65
2021/10/10 01:50:36;;;;;;;183.90;50.67;;;10.00;99.90;;;;;;5088910;28;20176;-65
2021/10/10 01:53:02;;;;;;;123.07;48.53;;;10.20;99.90;;;;;;5089326;28;20274;-65
2021/10/10 01:55:28;;;;;;;144.90;43.70;;;9.90;99.90;;;;;;5089162;28;20168;-65
2021/10/10 01:57:54;;;;;;;131.00;46.00;;;9.70;99.90;;;;;;5089564;28;20185;-65
2021/10/10 02:00:19;;;;;;;151.50;49.17;;;9.80;99.90;;;;;;5088970;28;20221;-65
2021/10/10 02:02:45;;;;;;;149.60;49.83;;;9.90;99.90;;;;;;5089329;28;20164;-65
2021/10/10 02:05:10;;;;;;;158.17;53.17;;;9.90;99.90;;;;;;5088620;28;20182;-65
2021/10/10 02:07:37;;;;;;;144.73;55.17;;;10.40;99.90;;;;;;5089239;28;20172;-65
2021/10/10 02:10:06;;;;;;;183.80;55.93;;;10.70;99.90;;;;;;5088612;28;20219;-65
2021/10/10 02:12:31;;;;;;;184.10;55.33;;;10.40;99.90;;;;;;5087701;28;20195;-65
2021/10/10 02:14:57;;;;;;;161.40;53.37;;;10.30;99.90;;;;;;5088911;28;20168;-65
2021/10/10 02:17:23;;;;;;;177.27;57.70;;;10.40;99.90;;;;;;5088929;28;20171;-65
2021/10/10 02:19:48;;;;;;;173.63;55.47;;;10.70;99.90;;;;;;5088520;28;20175;-65
2021/10/10 02:22:14;;;;;;;184.63;56.00;;;10.70;99.90;;;;;;5088938;28;20186;-65
2021/10/10 02:24:39;;;;;;;186.83;53.33;;;10.40;99.90;;;;;;5088920;28;20174;-66
2021/10/10 02:27:05;;;;;;;138.23;51.20;;;10.20;99.90;;;;;;5088854;28;20195;-65
2021/10/10 02:29:31;;;;;;;201.33;54.73;;;9.90;99.90;;;;;;5088535;28;20179;-65
2021/10/10 02:31:57;;;;;;;211.63;55.60;;;9.90;99.90;;;;;;5088642;28;20192;-65
2021/10/10 02:34:23;;;;;;;154.23;52.13;;;9.90;99.90;;;;;;5087011;28;20159;-65
2021/10/10 02:36:48;;;;;;;200.13;53.00;;;10.10;99.90;;;;;;5088422;28;20539;-65
2021/10/10 02:39:14;;;;;;;156.37;49.77;;;10.20;99.90;;;;;;5088393;28;20160;-65
2021/10/10 02:41:40;;;;;;;163.57;49.80;;;10.20;99.90;;;;;;5087216;28;20178;-65
2021/10/10 02:44:06;;;;;;;82.93;46.40;;;10.10;99.90;;;;;;5088567;28;20220;-65
2021/10/10 02:46:32;;;;;;;115.03;46.43;;;10.00;99.90;;;;;;5088565;28;20633;-65
2021/10/10 02:48:58;;;;;;;175.87;50.23;;;9.90;99.90;;;;;;5088339;28;20210;-65
2021/10/10 02:51:24;;;;;;;158.67;47.17;;;9.80;99.90;;;;;;5087868;28;20175;-65
2021/10/10 02:53:50;;;;;;;201.10;49.10;;;9.90;99.90;;;;;;5088217;28;20183;-65
2021/10/10 02:56:15;;;;;;;152.27;49.13;;;9.90;99.90;;;;;;5088215;28;20673;-66
2021/10/10 02:58:43;;;;;;;128.83;45.80;;;10.00;99.90;;;;;;5088241;28;20167;-65
2021/10/10 03:01:11;;;;;;;194.30;47.50;;;9.90;99.90;;;;;;5087936;28;20629;-65
2021/10/10 03:03:37;;;;;;;132.93;44.73;;;9.90;99.90;;;;;;5088276;28;20175;-65
2021/10/10 03:06:03;;;;;;;124.10;43.07;;;10.00;99.90;;;;;;5087907;28;20167;-65
2021/10/10 03:08:29;;;;;;;120.93;43.97;;;10.10;99.90;;;;;;5087851;28;20208;-65
2021/10/10 03:10:54;;;;;;;209.70;49.60;;;10.10;99.90;;;;;;5087760;28;20258;-65
2021/10/10 03:13:20;;;;;;;122.17;42.43;;;10.10;99.90;;;;;;5087972;28;20187;-65
2021/10/10 03:15:46;;;;;;;128.83;44.50;;;10.10;99.90;;;;;;5087905;28;20217;-65
2021/10/10 03:18:11;;;;;;;89.20;41.77;;;10.10;99.90;;;;;;5087949;28;20212;-65
2021/10/10 03:20:37;;;;;;;198.13;49.13;;;10.00;99.90;;;;;;5087298;28;20596;-65
2021/10/10 03:23:03;;;;;;;74.17;40.20;;;10.10;99.90;;;;;;5087879;28;20156;-66
2021/10/10 03:25:28;;;;;;;113.40;40.07;;;10.00;99.90;;;;;;5087563;28;20164;-65
2021/10/10 03:27:54;;;;;;;109.20;42.17;;;10.00;99.90;;;;;;5087676;28;20172;-65
2021/10/10 03:30:20;;;;;;;71.27;38.43;;;10.10;99.90;;;;;;5087454;28;20164;-65
2021/10/10 03:32:45;;;;;;;94.23;41.03;;;10.10;99.90;;;;;;5087761;28;20264;-65
2021/10/10 03:35:11;;;;;;;55.57;38.77;;;10.10;99.90;;;;;;5087100;28;20178;-65
2021/10/10 03:37:37;;;;;;;58.53;35.97;;;10.20;99.90;;;;;;5087540;28;20529;-65
2021/10/10 03:40:07;;;;;;;68.23;37.47;;;10.10;99.90;;;;;;5087093;28;20187;-65
2021/10/10 03:42:33;;;;;;;73.87;39.13;;;10.00;99.90;;;;;;5087547;28;20160;-65
2021/10/10 03:44:58;;;;;;;61.73;37.90;;;10.10;99.90;;;;;;5087362;28;20167;-65
2021/10/10 03:47:24;;;;;;;55.63;39.80;;;10.40;99.90;;;;;;5086843;28;20206;-65
2021/10/10 03:49:49;;;;;;;61.00;40.70;;;10.60;99.90;;;;;;5085037;28;20176;-65
2021/10/10 03:52:15;;;;;;;99.27;43.57;;;10.70;99.90;;;;;;5085959;28;20223;-65
2021/10/10 03:57:25;;;;;;;73.23;43.33;;;10.70;99.90;;;;;;5087272;28;20235;-65
2021/10/10 04:00:01;;;;;;;72.03;42.67;;;10.60;99.90;;;;;;5086849;28;20175;-65
2021/10/10 04:02:27;;;;;;;76.80;41.57;;;10.40;99.90;;;;;;5086659;28;20183;-65
2021/10/10 04:04:53;;;;;;;75.17;41.60;;;10.40;99.90;;;;;;5086622;28;20229;-65
2021/10/10 04:07:19;;;;;;;67.40;40.63;;;10.40;99.90;;;;;;5086792;28;20248;-65
2021/10/10 04:09:45;;;;;;;59.60;40.67;;;10.30;99.90;;;;;;5086326;28;20215;-65
2021/10/10 04:12:11;;;;;;;114.70;45.40;;;10.20;99.90;;;;;;5086730;28;20243;-65
2021/10/10 04:14:36;;;;;;;59.93;40.50;;;10.10;99.90;;;;;;5086427;28;20187;-65
2021/10/10 04:17:02;;;;;;;59.80;40.77;;;10.30;99.90;;;;;;5086864;28;20160;-65
2021/10/10 04:19:28;;;;;;;55.83;39.07;;;10.30;99.90;;;;;;5086223;28;20686;-65
2021/10/10 04:21:53;;;;;;;60.23;37.93;;;10.20;99.90;;;;;;5086600;28;20156;-65
2021/10/10 04:24:19;;;;;;;51.20;35.67;;;10.00;99.90;;;;;;5085144;28;20231;-65
2021/10/10 04:26:45;;;;;;;72.03;36.70;;;9.80;99.90;;;;;;5086681;28;20172;-65
2021/10/10 04:29:10;;;;;;;46.80;34.13;;;9.70;99.90;;;;;;5086439;28;20168;-65
2021/10/10 04:31:36;;;;;;;54.23;33.73;;;9.60;99.90;;;;;;5086158;28;20183;-66
2021/10/10 04:34:02;;;;;;;44.80;34.17;;;9.60;99.90;;;;;;5086121;28;20182;-65
2021/10/10 04:36:27;;;;;;;66.67;33.03;;;9.50;99.90;;;;;;5085987;28;20633;-66
2021/10/10 04:38:53;;;;;;;54.50;32.53;;;9.60;99.90;;;;;;5086242;28;20242;-66
2021/10/10 04:41:19;;;;;;;51.57;32.60;;;9.70;99.90;;;;;;5085873;28;20203;-65
2021/10/10 04:43:45;;;;;;;54.67;33.30;;;9.70;99.90;;;;;;5086482;28;20251;-65
2021/10/10 04:46:11;;;;;;;74.53;33.00;;;9.60;99.90;;;;;;5086087;28;20164;-66
2021/10/10 04:48:36;;;;;;;56.47;32.77;;;9.50;99.90;;;;;;5086242;28;20174;-65
2021/10/10 04:51:02;;;;;;;52.37;31.80;;;9.50;99.90;;;;;;5084331;28;20178;-65
2021/10/10 04:53:28;;;;;;;42.90;30.27;;;9.60;99.90;;;;;;5086092;28;20180;-65
2021/10/10 04:55:53;;;;;;;74.53;33.93;;;9.60;99.90;;;;;;5085945;28;20160;-65
2021/10/10 04:58:19;;;;;;;46.67;31.77;;;9.50;99.90;;;;;;5086204;28;20160;-65
2021/10/10 05:00:45;;;;;;;44.63;29.57;;;9.40;99.90;;;;;;5085610;28;20164;-65
2021/10/10 05:03:10;;;;;;;33.97;29.43;;;9.40;99.90;;;;;;5086109;28;20214;-65
2021/10/10 05:05:36;;;;;;;43.83;29.93;;;9.30;99.90;;;;;;5085587;28;20632;-65
2021/10/10 05:08:02;;;;;;;43.93;29.20;;;9.20;99.90;;;;;;5086180;28;20175;-65
2021/10/10 05:10:27;;;;;;;37.10;30.30;;;9.10;99.90;;;;;;5085511;28;20214;-65
2021/10/10 05:12:53;;;;;;;58.77;30.97;;;9.20;99.90;;;;;;5085988;28;20198;-65
2021/10/10 05:15:18;;;;;;;36.03;30.10;;;9.10;99.90;;;;;;5085639;28;20168;-65
2021/10/10 05:17:44;;;;;;;43.83;29.13;;;9.10;99.90;;;;;;5084623;28;20163;-65
2021/10/10 05:20:10;;;;;;;46.63;27.23;;;9.00;99.90;;;;;;5085234;28;20183;-65
2021/10/10 05:22:36;;;;;;;34.50;27.77;;;8.80;99.90;;;;;;5085784;28;20222;-65
2021/10/10 05:25:02;;;;;;;41.60;27.43;;;8.70;99.90;;;;;;5085951;28;20168;-66
2021/10/10 05:27:28;;;;;;;32.80;27.00;;;8.60;99.90;;;;;;5085959;28;20172;-65
2021/10/10 05:29:53;;;;;;;31.63;28.23;;;8.50;99.90;;;;;;5085465;28;20199;-66
2021/10/10 05:32:19;;;;;;;36.03;32.13;;;8.60;99.90;;;;;;5084864;28;20440;-65
2021/10/10 05:34:45;;;;;;;34.07;29.30;;;8.70;99.90;;;;;;5085344;28;20256;-65
2021/10/10 05:37:10;;;;;;;32.70;29.33;;;8.60;99.90;;;;;;5085820;28;20276;-65
2021/10/10 05:39:36;;;;;;;37.53;30.67;;;8.60;99.90;;;;;;5085364;28;20168;-65
2021/10/10 05:42:02;;;;;;;41.73;30.57;;;8.60;99.90;;;;;;5085599;28;20198;-65
2021/10/10 05:44:28;;;;;;;42.67;31.63;;;8.50;99.90;;;;;;5085718;28;20167;-65
2021/10/10 05:46:53;;;;;;;51.93;33.50;;;8.50;99.90;;;;;;5085653;28;20161;-65
2021/10/10 05:49:19;;;;;;;88.67;37.93;;;8.30;99.90;;;;;;5085447;28;20179;-65
2021/10/10 05:51:46;;;;;;;69.50;38.33;;;8.30;99.90;;;;;;5085314;28;20179;-65
2021/10/10 05:54:14;;;;;;;58.40;36.90;;;8.40;99.90;;;;;;5085476;28;20184;-65
2021/10/10 05:56:39;;;;;;;71.30;38.07;;;8.50;99.90;;;;;;5085625;28;20160;-65
2021/10/10 05:59:10;;;;;;;61.37;37.93;;;8.60;99.90;;;;;;5084022;28;20160;-65
2021/10/10 06:01:35;;;;;;;75.33;38.33;;;8.70;99.90;;;;;;5084039;28;20171;-66
2021/10/10 06:04:04;;;;;;;91.73;41.57;;;8.80;99.90;;;;;;5085345;28;20168;-65
2021/10/10 06:06:30;;;;;;;88.07;40.70;;;9.00;99.90;;;;;;5085024;28;20168;-65
2021/10/10 06:08:56;;;;;;;80.40;41.23;;;9.10;99.90;;;;;;5085499;28;20219;-65
2021/10/10 06:11:22;;;;;;;79.90;43.43;;;9.20;99.90;;;;;;5086294;28;20233;-65
2021/10/10 06:13:48;;;;;;;97.10;45.00;;;9.30;99.90;;;;;;5089034;28;20190;-65
2021/10/10 06:16:13;;;;;;;70.40;40.30;;;9.30;99.90;;;;;;5088864;28;20159;-65
2021/10/10 06:18:40;;;;;;;79.63;39.53;;;9.20;99.90;;;;;;5088961;28;20163;-65
2021/10/10 06:21:05;;;;;;;56.80;39.00;;;9.20;99.90;;;;;;5088280;28;20221;-65
2021/10/10 06:23:31;;;;;;;93.43;39.50;;;9.20;99.90;;;;;;5088936;28;20184;-65
2021/10/10 06:25:57;;;;;;;75.83;40.07;;;9.40;99.90;;;;;;5088706;28;20526;-65
2021/10/10 06:28:22;;;;;;;56.07;40.27;;;9.50;99.90;;;;;;5088923;28;20652;-65
2021/10/10 06:30:48;;;;;;;93.47;43.70;;;9.50;99.90;;;;;;5088371;28;20633;-65
2021/10/10 06:33:14;;;;;;;93.17;46.10;;;9.50;99.90;;;;;;5088470;28;20191;-65
2021/10/10 06:35:39;;;;;;;70.10;46.87;;;10.00;99.90;;;;;;5088407;28;20183;-65
2021/10/10 06:38:05;;;;;;;79.80;43.00;;;10.10;99.90;;;;;;5088522;28;20190;-65
2021/10/10 06:40:31;;;;;;;85.10;47.37;;;9.90;99.90;;;;;;5088228;28;20179;-65
2021/10/10 06:42:56;;;;;;;74.27;48.20;;;10.00;99.90;;;;;;5088551;28;20172;-65
2021/10/10 06:45:22;;;;;;;71.47;46.13;;;10.50;99.90;;;;;;5088248;28;20164;-65
2021/10/10 06:47:47;;;;;;;93.73;48.70;;;10.50;99.90;;;;;;5088249;28;20187;-65
2021/10/10 06:50:13;;;;;;;74.47;49.00;;;10.40;99.90;;;;;;5086492;28;20179;-65
2021/10/10 06:52:39;;;;;;;101.03;48.33;;;10.60;99.90;;;;;;5087955;28;20198;-65
2021/10/10 06:55:05;;;;;;;78.47;45.37;;;10.60;99.90;;;;;;5088253;28;20194;-65
2021/10/10 06:57:32;;;;;;;100.67;43.47;;;10.50;99.90;;;;;;5088314;28;20160;-65
2021/10/10 07:00:00;;;;;;;87.90;41.80;;;10.30;99.90;;;;;;5087751;28;20160;-65
2021/10/10 07:02:26;;;;;;;55.07;39.87;;;10.10;99.90;;;;;;5087902;28;20346;-65
2021/10/10 07:04:52;;;;;;;57.87;38.50;;;10.10;99.90;;;;;;5087545;28;20176;-65
2021/10/10 07:07:17;;;;;;;48.13;38.37;;;10.00;99.90;;;;;;5087958;28;20164;-65
2021/10/10 07:09:43;;;;;;;68.40;36.27;;;9.90;99.90;;;;;;5085858;28;20693;-65
2021/10/10 07:12:09;;;;;;;57.23;35.80;;;9.80;99.90;;;;;;5087663;28;20172;-65
2021/10/10 07:14:34;;;;;;;71.40;34.17;;;9.60;99.90;;;;;;5086604;28;20164;-65
2021/10/10 07:17:00;;;;;;;70.57;36.87;;;9.50;99.90;;;;;;5087867;28;20191;-65
2021/10/10 07:19:34;;;;;;;60.93;38.00;;;9.60;99.90;;;;;;5087443;28;20172;-65
2021/10/10 07:22:12;;;;;;;60.00;38.57;;;9.70;99.90;;;;;;5087173;28;20536;-65
2021/10/10 07:27:22;;;;;;;98.27;42.03;;;10.20;99.90;;;;;;5087590;28;20267;-65
2021/10/10 07:29:48;;;;;;;98.13;41.53;;;10.50;99.90;;;;;;5087298;28;20160;-65
2021/10/10 07:32:14;;;;;;;120.67;44.50;;;10.80;99.90;;;;;;5087243;28;20141;-65
2021/10/10 07:34:40;;;;;;;92.77;42.77;;;10.90;99.90;;;;;;5087274;28;20182;-65
2021/10/10 07:37:06;;;;;;;109.40;42.23;;;10.70;99.90;;;;;;5086919;28;20159;-65
2021/10/10 07:39:31;;;;;;;86.83;40.17;;;10.70;99.90;;;;;;5086747;28;20164;-65
2021/10/10 07:41:57;;;;;;;91.13;42.87;;;10.80;99.90;;;;;;5086516;28;20175;-66
2021/10/10 07:44:26;;;;;;;110.97;43.00;;;11.20;99.90;;;;;;5085898;28;20239;-65
2021/10/10 07:47:06;;;;;;;122.27;42.70;;;11.30;99.90;;;;;;5086990;28;20194;-65
2021/10/10 07:49:33;;;;;;;92.20;44.80;;;11.50;99.90;;;;;;5087060;28;20547;-65
2021/10/10 07:51:59;;;;;;;147.07;45.47;;;11.90;99.90;;;;;;5086799;28;20152;-65
2021/10/10 07:54:24;;;;;;;104.67;41.37;;;11.80;99.90;;;;;;5087043;28;20556;-65
2021/10/10 07:56:50;;;;;;;84.57;41.23;;;11.40;99.90;;;;;;5086945;28;20201;-65
2021/10/10 07:59:16;;;;;;;77.93;43.80;;;11.50;99.90;;;;;;5087042;28;20338;-65
2021/10/10 08:01:41;;;;;;;85.33;43.87;;;12.00;99.90;;;;;;5086665;28;20168;-65
2021/10/10 08:04:07;;;;;;;77.50;44.07;;;12.00;99.90;;;;;;5086728;28;20164;-65
2021/10/10 08:06:32;;;;;;;99.07;41.50;;;11.90;99.90;;;;;;5086544;28;20645;-65
2021/10/10 08:08:58;;;;;;;85.27;41.90;;;11.70;99.90;;;;;;5086399;28;20219;-65
2021/10/10 08:11:26;;;;;;;66.23;39.90;;;11.60;99.90;;;;;;5086681;28;20172;-65
2021/10/10 08:13:51;;;;;;;119.00;41.83;;;11.60;99.90;;;;;;5086637;28;20176;-65
2021/10/10 08:16:17;;;;;;;58.87;37.57;;;11.30;99.90;;;;;;5086615;28;20613;-65
2021/10/10 08:18:43;;;;;;;57.80;37.50;;;11.20;99.90;;;;;;5086628;28;20191;-65
2021/10/10 08:21:08;;;;;;;69.47;38.03;;;11.30;99.90;;;;;;5084540;28;20172;-65
2021/10/10 08:23:34;;;;;;;67.10;37.42;;;11.30;99.90;;;;;;5086612;28;20173;-65
2021/10/10 08:26:00;;;;;;;65.57;37.97;;;11.30;99.90;;;;;;5086294;28;20171;-65
2021/10/10 08:28:25;;;;;;;75.32;41.88;;;11.40;99.90;;;;;;5086236;28;20239;-65
2021/10/10 08:30:52;;;;;;;81.00;39.83;;;12.00;99.90;;;;;;5085774;28;20176;-66
2021/10/10 08:33:17;;;;;;;101.75;41.88;;;12.00;99.90;;;;;;5086006;28;20191;-65
2021/10/10 08:35:43;;;;;;;88.90;38.42;;;11.80;99.90;;;;;;5085820;28;20179;-65
2021/10/10 08:38:09;;;;;;;53.85;39.83;;;11.70;99.90;;;;;;5086165;28;20156;-65
2021/10/10 08:40:35;;;;;;;106.53;42.78;;;11.70;99.90;;;;;;5085647;28;20205;-65
2021/10/10 08:43:05;;;;;;;70.78;43.03;;;12.00;99.90;;;;;;5086256;28;20234;-65
2021/10/10 08:45:33;;;;;;;84.80;45.78;;;12.30;99.90;;;;;;5085933;28;20163;-65
2021/10/10 08:47:59;;;;;;;90.45;47.17;;;12.80;99.90;;;;;;5086126;28;20193;-65
2021/10/10 08:50:29;;;;;;;101.65;46.42;;;13.20;99.90;;;;;;5085289;28;20195;-65
2021/10/10 08:52:59;;;;;;;123.20;46.22;;;13.20;99.90;;;;;;5084674;28;20219;-65
2021/10/10 08:55:26;;;;;;;83.82;47.22;;;12.90;99.90;;;;;;5085869;28;20160;-65
2021/10/10 08:57:53;;;;;;;68.97;46.72;;;12.40;99.90;;;;;;5085931;28;20156;-66
2021/10/10 09:00:23;;;;;;;71.55;47.55;;;12.10;99.90;;;;;;5085552;28;20194;-65
2021/10/10 09:02:51;;;;;;;102.53;46.80;;;12.20;99.90;;;;;;5085426;28;20187;-65
2021/10/10 09:05:17;;;;;;;69.78;47.63;;;12.40;99.90;;;;;;5085448;28;20175;-65
2021/10/10 09:07:44;;;;;;;82.32;48.08;;;12.30;99.90;;;;;;5085813;28;20186;-65
2021/10/10 09:10:37;;;;;;;84.22;49.25;;;12.50;99.90;;;;;;5084882;28;20649;-65
2021/10/10 09:13:10;;;;;;;97.05;46.72;;;12.90;99.90;;;;;;5085447;28;20208;-65
2021/10/10 09:15:38;;;;;;;141.60;87.45;;;13.00;99.90;;;;;;5085593;28;20203;-65
2021/10/10 09:18:05;;;;;;;85.50;52.03;;;13.10;99.90;;;;;;5085815;28;20164;-65
2021/10/10 09:20:33;;;;;;;79.13;47.45;;;13.40;99.90;;;;;;5085294;28;20164;-65
2021/10/10 09:23:00;;;;;;;93.35;49.22;;;13.40;99.90;;;;;;5084309;28;20172;-65
2021/10/10 09:25:26;;;;;;;81.65;48.17;;;13.60;99.90;;;;;;5085490;28;20164;-65
2021/10/10 09:27:52;;;;;;;81.43;50.28;;;13.80;99.90;;;;;;5085642;28;20167;-65
2021/10/10 09:30:22;;;;;;;85.00;50.08;;;14.10;99.90;;;;;;5085340;28;20160;-65
2021/10/10 09:32:54;;;;;;;82.30;51.55;;;14.20;99.90;;;;;;5085150;28;20661;-65
2021/10/10 09:35:29;;;;;;;82.70;51.25;;;14.30;99.90;;;;;;5084787;28;20191;-65
2021/10/10 09:38:21;;;;;;;80.97;52.17;;;14.30;99.90;;;;;;5085627;28;20147;-65
2021/10/10 09:41:00;;;;;;;83.40;51.83;;;14.30;99.90;;;;;;5085025;28;20186;-65
2021/10/10 09:43:26;;;;;;;92.05;56.13;;;14.20;99.90;;;;;;5085345;28;20171;-65
2021/10/10 09:48:30;;;;;;;80.00;51.75;;;14.60;99.90;;;;;;5089545;28;20190;-65
2021/10/10 09:50:56;;;;;;;85.10;53.92;;;14.30;99.90;;;;;;5087375;28;20172;-65
2021/10/10 09:53:33;;;;;;;85.18;52.10;;;14.00;99.90;;;;;;5088754;28;20199;-65
2021/10/10 09:56:08;;;;;;;94.63;55.33;;;13.80;99.90;;;;;;5089141;28;20159;-65
2021/10/10 09:58:38;;;;;;;83.30;54.15;;;13.60;99.90;;;;;;5089178;28;20144;-65
2021/10/10 10:01:14;;;;;;;87.03;56.22;;;13.60;99.90;;;;;;5088777;28;20198;-65
2021/10/10 10:04:04;;;;;;;83.85;53.03;;;13.70;99.90;;;;;;5088810;28;20155;-65
2021/10/10 10:06:34;;;;;;;92.72;56.70;;;13.90;99.90;;;;;;5088660;28;20172;-65
2021/10/10 10:09:05;;;;;;;84.20;54.42;;;14.50;99.90;;;;;;5088850;28;20288;-65
2021/10/10 10:11:33;;;;;;;85.68;54.67;;;14.70;99.90;;;;;;5087806;28;20171;-65
2021/10/10 10:14:09;;;;;;;87.07;54.35;;;14.70;99.90;;;;;;5088940;28;20184;-65
2021/10/10 10:16:42;;;;;;;82.20;51.45;;;14.60;99.90;;;;;;5089045;28;20175;-65
2021/10/10 10:19:18;;;;;;;83.30;52.22;;;14.60;99.90;;;;;;5088831;28;20156;-64
2021/10/10 10:21:46;;;;;;;74.22;49.05;;;14.80;99.90;;;;;;5088421;28;20175;-65
2021/10/10 10:24:13;;;;;;;80.07;50.50;;;14.80;99.90;;;;;;5088914;28;20235;-65
2021/10/10 10:26:40;;;;;;;77.20;50.20;;;14.90;99.90;;;;;;5088448;28;20196;-65
2021/10/10 10:29:33;;;;;;;72.85;50.25;;;15.10;99.90;;;;;;5088632;28;20164;-65
2021/10/10 10:32:00;;;;;;;83.88;53.47;;;15.20;99.90;;;;;;5088046;28;20192;-65
2021/10/10 10:34:31;;;;;;;86.20;53.83;;;15.20;99.90;;;;;;5087067;28;20184;-65
2021/10/10 10:36:58;;;;;;;77.82;52.53;;;15.40;99.90;;;;;;5088191;28;20254;-65
2021/10/10 10:39:33;;;;;;;98.18;68.82;;;15.50;99.90;;;;;;5087547;28;20489;-65
2021/10/10 10:42:00;;;;;;;84.80;56.83;;;15.70;99.90;;;;;;5086889;28;20183;-65
2021/10/10 10:44:40;;;;;;;82.60;52.88;;;15.70;99.90;;;;;;5088206;28;20171;-65
2021/10/10 10:47:09;;;;;;;82.88;52.20;;;15.60;99.90;;;;;;5088194;28;20167;-65
2021/10/10 10:50:00;;;;;;;80.53;55.63;;;15.70;99.90;;;;;;5086301;28;20406;-65
2021/10/10 10:52:35;;;;;;;86.15;55.53;;;15.80;99.90;;;;;;5088045;28;20172;-65
2021/10/10 10:55:22;;;;;;;88.57;57.45;;;15.90;99.90;;;;;;5088150;28;20190;-65
2021/10/10 10:57:56;;;;;;;86.97;56.70;;;16.30;99.90;;;;;;5087948;28;20181;-65
2021/10/10 11:00:36;;;;;;;86.72;54.35;;;16.20;99.90;;;;;;5087383;28;20163;-64
2021/10/10 11:03:05;;;;;;;86.57;57.78;;;16.30;99.90;;;;;;5087645;28;20523;-65
2021/10/10 11:05:54;;;;;;;81.28;54.67;;;16.70;99.90;;;;;;5087366;28;20175;-65
2021/10/10 11:08:22;;;;;;;91.90;58.50;;;16.90;99.90;;;;;;5087500;28;20232;-65
2021/10/10 11:11:03;;;;;;;95.13;60.25;;;16.90;99.90;;;;;;5086107;28;20577;-64
2021/10/10 11:13:34;;;;;;;87.30;58.35;;;17.00;99.90;;;;;;5087600;28;20196;-65
2021/10/10 11:16:18;;;;;;;92.55;59.25;;;17.00;99.90;;;;;;5087524;28;20163;-65
2021/10/10 11:18:58;;;;;;;87.95;58.45;;;17.30;99.90;;;;;;5087688;28;20152;-65
2021/10/10 11:21:28;;;;;;;92.28;58.30;;;17.30;99.90;;;;;;5086976;28;20191;-65
2021/10/10 11:23:59;;;;;;;90.10;58.25;;;17.40;99.90;;;;;;5087571;28;20164;-65
2021/10/10 11:26:26;;;;;;;90.40;59.20;;;17.50;99.90;;;;;;5087508;28;20168;-65
2021/10/10 11:28:56;;;;;;;93.72;59.10;;;17.70;99.90;;;;;;5087437;28;20163;-65
2021/10/10 11:31:22;;;;;;;90.85;57.00;;;17.80;99.90;;;;;;5086527;28;20156;-65
2021/10/10 11:33:57;;;;;;;92.88;55.92;;;17.80;99.90;;;;;;5087082;28;20188;-65
2021/10/10 11:36:42;;;;;;;89.20;56.50;;;17.80;99.90;;;;;;5087155;28;20186;-65
2021/10/10 11:39:10;;;;;;;84.78;54.30;;;17.90;99.90;;;;;;5087168;28;20190;-65
2021/10/10 11:41:48;;;;;;;90.32;55.38;;;18.00;99.90;;;;;;5086780;28;20164;-65
2021/10/10 11:44:15;;;;;;;81.47;55.67;;;18.30;99.90;;;;;;5087122;28;20152;-65
2021/10/10 11:46:50;;;;;;;86.75;54.53;;;18.40;99.90;;;;;;5086905;28;20185;-65
2021/10/10 11:49:24;;;;;;;87.32;54.95;;;18.00;99.90;;;;;;5087069;28;20245;-65
2021/10/10 11:51:51;;;;;;;109.63;61.58;;;17.60;99.90;;;;;;5086397;28;20171;-65
2021/10/10 11:54:32;;;;;;;87.10;55.92;;;17.70;99.90;;;;;;5086899;28;20210;-65
2021/10/10 11:56:59;;;;;;;83.15;54.33;;;18.10;99.90;;;;;;5086728;28;20171;-65
2021/10/10 11:59:25;;;;;;;91.63;54.22;;;18.10;99.90;;;;;;5086877;28;20232;-65
2021/10/10 12:01:56;;;;;;;83.80;53.53;;;18.20;99.90;;;;;;5086434;28;20160;-66
2021/10/10 12:04:22;;;;;;;85.82;54.53;;;18.20;99.90;;;;;;5086672;28;20179;-65
2021/10/10 12:06:49;;;;;;;81.20;55.50;;;18.10;99.90;;;;;;5086267;28;20280;-65
2021/10/10 12:09:16;;;;;;;84.13;55.22;;;18.40;99.90;;;;;;5085886;28;20216;-65
2021/10/10 12:12:04;;;;;;;88.63;54.45;;;18.50;99.90;;;;;;5086235;28;20190;-65
2021/10/10 12:14:52;;;;;;;80.43;54.55;;;18.90;99.90;;;;;;5086130;28;20214;-65
2021/10/10 12:17:29;;;;;;;87.68;56.72;;;19.20;99.90;;;;;;5085995;28;20534;-65
2021/10/10 12:19:57;;;;;;;87.45;53.80;;;19.30;99.90;;;;;;5085872;28;20160;-65
2021/10/10 12:22:23;;;;;;;78.90;52.22;;;19.40;99.90;;;;;;5085658;28;20168;-65
2021/10/10 12:24:49;;;;;;;82.43;54.50;;;19.50;99.90;;;;;;5086567;28;20188;-65
2021/10/10 12:27:30;;;;;;;91.68;55.33;;;19.50;99.90;;;;;;5086666;28;20209;-65
2021/10/10 12:29:59;;;;;;;90.00;56.47;;;20.00;99.90;;;;;;5086235;28;20178;-65
2021/10/10 12:32:35;;;;;;;86.22;56.67;;;19.90;99.90;;;;;;5086023;28;20168;-66
2021/10/10 12:35:15;;;;;;;87.80;56.67;;;19.60;99.90;;;;;;5086077;28;20601;-64
2021/10/10 12:37:54;;;;;;;89.47;57.22;;;19.40;99.90;;;;;;5085025;28;20168;-65
2021/10/10 12:40:26;;;;;;;97.50;57.22;;;19.90;99.90;;;;;;5084604;28;20194;-64